ADVERTISEMENT

iOS app on App Store Android app on Google Play

2018 \ Topanga Turkey Trot- XTERRA Trail Run - November 24, 2018

Notes Pages Download Filter By
 




Keyword Exact  
Division

Bib Division Last Name First Name Sex Division Place Gun Chip Pace Overall City State
566 25-29 Male Stayman Max M 1 00:30:56 00:30:55 00:09:57 1 Cambridge MA
559 55-59 Male Sode Dewayne M 1 00:32:03 00:32:03 00:10:19 2 West Hills CA
550 50-54 Male Nazitto Michael M 1 00:33:20 00:33:19 00:10:43 3 Playa Vista CA
583 35-39 Male Schuy Gregory M 1 00:33:41 00:33:41 00:10:50 4 Kailua HI
516 60-64 Female Cohen Leslie F 1 00:34:05 00:34:05 00:10:58 5 Santa Monica CA
529 10-14 Male Harper Zahir M 1 00:34:34 00:34:34 00:11:07 6 Chatsworth CA
582 30-34 Male Titus Deloike M 1 00:34:53 00:34:52 00:11:13 7
509 55-59 Female Aronson Jennifer F 1 00:34:57 00:34:57 00:11:15 8 Santa Monica CA
553 50-54 Male Reibenspies Craig M 2 00:36:40 00:36:40 00:11:48 9 Simi Valley CA
513 40-44 Male Casolari Matteo M 1 00:37:07 00:36:57 00:11:53 10 Sassuolo KY
526 10-14 Male Gonzalez Ethan M 2 00:37:11 00:37:11 00:11:58 11 San Fernando CA
521 30-34 Male Deyoung Matthew M 2 00:39:04 00:39:01 00:12:33 12 Edwards CA
580 45-49 Male Arellano Richard M 1 00:39:12 00:39:06 00:12:35 13 Oxnard CA
551 50-54 Male Petersson-larsson Olf M 3 00:39:24 00:39:21 00:12:40 14 Langniendorf
552 10-14 Male Ramberg Grady M 3 00:40:51 00:40:45 00:13:07 15 Los Angeles CA
585 55-59 Male Ramberg Brad M 2 00:40:52 00:40:46 00:13:07 16 Los Angeles CA
549 35-39 Male Munoz Brian M 2 00:40:58 00:40:55 00:13:10 17 Thousand Oaks CA
519 35-39 Female Davydova Vlada F 1 00:41:42 00:41:41 00:13:25 18 Sherman Oaks CA
538 30-34 Female Kerstein Elizabeth F 1 00:42:33 00:42:31 00:13:41 19 Los Angeles CA
504 45-49 Female Basulto Karina F 1 00:43:58 00:43:56 00:14:08 20 San Fernando CA
579 35-39 Male Huelele David M 3 00:45:44 00:45:40 00:14:42 21
520 30-34 Female Deyoung Alison F 2 00:45:57 00:45:54 00:14:46 22 Edwards CA
548 50-54 Female Moore Suzanne F 1 00:46:52 00:46:51 00:15:05 23 Chatsworth CA
502 35-39 Male Anderson Greg M 4 00:47:01 00:46:53 00:15:05 24 Los Angeles CA
530 30-34 Female Hazard Robin F 3 00:47:50 00:47:46 00:15:22 25 San Luis Obispo CA
568 40-44 Male Summers Matt M 2 00:48:42 00:48:37 00:15:39 26 Woodland Hills CA
569 40-44 Female Summers Mandy F 1 00:48:42 00:48:37 00:15:39 27 Woodland Hls CA
510 30-34 Female Briesacker Jessica F 4 00:48:49 00:48:43 00:15:41 28 Anaheim CA
586 50-54 Male Doyle Sean M 4 00:48:54 00:48:47 00:15:42 29 Los Angeles CA
508 60-64 Female Bookheimer Susan F 2 00:49:21 00:49:15 00:15:51 30 Calabasas CA
573 40-44 Female Vasquez Magdalene F 2 00:49:27 00:49:17 00:15:52 31 Santa Monica CA
531 60-64 Female Herle Karen F 3 00:49:31 00:49:29 00:15:55 32 Chatsworth CA
503 45-49 Female Balangue Tracy F 2 00:50:08 00:49:57 00:16:04 33 Los Angeles CA
581 45-49 Male Hsu Peter M 2 00:50:34 00:50:22 00:16:12 34 Temple City CA
523 50-54 Male Espindola Gerson M 5 00:50:37 00:50:37 00:16:17 35 Los Angeles CA
564 55-59 Male Sperling Carsten M 3 00:51:18 00:51:13 00:16:29 36 Hamburg
515 70-74 Female Chism Linda F 1 00:52:11 00:52:01 00:16:44 37 Culver City CA
547 35-39 Female Mcilvaine Emily F 2 00:52:20 00:52:15 00:16:49 38 Camarillo CA
577 1-9 Male Weiss Chad M 1 00:52:21 00:52:18 00:16:50 39 Los Angeles CA
575 50-54 Female Weiss Julie F 2 00:52:37 00:52:34 00:16:55 40 Los Angeles CA
514 40-44 Female Castillo Ivy F 3 00:52:45 00:52:34 00:16:55 41 Playa Del Rey CA
524 65-69 Male Frerichs Neil M 1 00:52:52 00:52:43 00:16:58 42 El Segundo CA
522 45-49 Female Eisner Jodi F 3 00:53:25 00:53:22 00:17:10 43 Van Nuys CA
518 20-24 Female Cox Emily F 1 00:54:27 00:54:23 00:17:30 44 Los Angeles CA
584 20-24 Female Ansari Yasmin F 2 00:54:28 00:54:24 00:17:30 45 Encino CA
517 30-34 Female Cox Katie Ginge F 5 00:54:34 00:54:31 00:17:33 46 Pacific Palisades CA
533 55-59 Female Horsfield Robin F 2 00:56:26 00:56:21 00:18:08 47 Topanga CA
557 10-14 Female Sammis Kylie F 1 00:56:27 00:56:22 00:18:08 48 Tooanga CA
574 55-59 Female Vujovich Alicia F 3 00:57:37 00:57:31 00:18:31 49 Laguna Niguel CA
525 15-19 Female Giron Luis F 1 00:57:38 00:57:36 00:18:32 50 W Los Angeles CA
571 65-69 Female Tovar Celia F 1 00:59:07 00:59:06 00:19:01 51 Sylmar CA
512 30-34 Male Camacho Rex M 3 00:59:46 00:59:39 00:19:12 52 Los Angeles CA
501 45-49 Female Altamirano Patricia F 4 01:00:08 01:00:06 00:19:20 53 Los Angeles CA
572 40-44 Female Tovar Mirella F 4 01:00:14 01:00:12 00:19:22 54 As Fernando CA
544 35-39 Female Lopez Rubiselia F 3 01:03:19 01:03:18 00:20:22 55 W Los Angeles CA
562 1-9 Female Spence Padraic F 1 01:09:19 01:09:12 00:22:16 56 Los Angeles CA
560 50-54 Male Spence Padraic M 6 01:09:19 01:09:12 00:22:16 57 Los Angeles CA
567 55-59 Female Streimer Roberta F 4 01:09:42 01:09:39 00:22:25 58 Oakland CA
558 40-44 Female Santos Tina F 5 01:12:39 01:12:32 00:23:21 59 Alhambra CA
576 10-14 Female Weiss Ella F 2 01:12:59 01:12:55 00:23:28 60 Los Angeles CA
545 1-9 Female Lopez Luis F 2 01:14:04 01:14:03 00:23:50 61 W Los Angeles CA
561 35-39 Female Spence Padraic F 4 01:21:41 01:21:33 00:26:15 62 Los Angeles CA
563 1-9 Female Spence Padraic F 3 01:21:41 01:21:33 00:26:15 63 Los Angeles CA
Notes Pages Download Filter By
 




Keyword Exact  
Division

Bib Division Last Name First Name Division Place Gun Chip Pace Overall City State
15 30-34 Male Buratti Christian 1 00:50:39 00:50:39 00:08:09 1 Chatsworth CA
105 50-54 Male Sloan Richard 1 00:51:26 00:51:23 00:08:16 2 Santa Monica CA
27 15-19 Male Fleck Elliot 1 00:52:43 00:52:43 00:08:29 3 Granada Hills CA
8 40-44 Female Barnard Kara 1 00:53:49 00:53:48 00:08:39 4 San Francisco CA
45 20-24 Male Korman Jules 1 00:54:21 00:54:21 00:08:45 5 Piedmont CA
100 55-59 Male Hansen Dean 1 00:55:36 00:55:33 00:08:56 6 Ventura CA
86 45-49 Male Stefureak Daniel 1 00:56:22 00:56:22 00:09:04 7 Simi Valley CA
87 40-44 Male Summers Tyrone 1 00:57:42 00:57:36 00:09:16 8 Los Angeles CA
66 30-34 Female Partida Reesa 1 00:58:42 00:58:39 00:09:26 9 Agoura Hills CA
41 15-19 Male Hsu Jacob 2 00:58:54 00:58:50 00:09:28 10 Temple City CA
62 50-54 Male Morel Brian 2 00:59:40 00:59:36 00:09:35 11 Los Angeles CA
23 50-54 Male Deloye Steven 3 00:59:41 00:59:37 00:09:36 12 Irvine CA
3 40-44 Male Allen Eric 2 00:59:51 00:59:45 00:09:37 13 Santa Monica CA
94 50-54 Male Wolff Brett 4 00:59:52 00:59:52 00:09:38 14 Sierra Madre CA
101 Age Unknown - Male Gullermo Melchor 1 01:00:10 01:00:06 00:09:40 15
74 45-49 Male Ronk Kevin 2 01:00:11 01:00:09 00:09:41 16 Westlake Village CA
32 35-39 Male Gosley Tyler 1 01:00:28 01:00:26 00:09:43 17 Barton VT
80 40-44 Male Schober Toland 3 01:00:59 01:00:58 00:09:49 18 La Canada CA
11 30-34 Male Boyer Joshua 2 01:02:28 01:02:21 00:10:02 19 San Diego CA
35 35-39 Female Hammond Brooke 1 01:03:30 01:03:21 00:10:12 20 Los Angeles CA
102 40-44 Male Holloway William 4 01:03:33 01:03:27 00:10:13 21 Topanga CA
58 35-39 Male Mcilvaine Jake 2 01:03:45 01:03:39 00:10:14 22 Camarillo CA
57 50-54 Male Mcfarlane Michael 5 01:04:14 01:04:13 00:10:20 23 Palm Desert CA
65 55-59 Male Pacheco Michael 2 01:04:29 01:04:27 00:10:22 24 Los Angeles CA
67 50-54 Male Platt Dan 6 01:04:55 01:04:53 00:10:26 25 Woodland Hls CA
97 55-59 Female Zagnoli Lora 1 01:05:36 01:05:32 00:10:33 26 Van Nuys CA
85 40-44 Male Sosa Jorge 5 01:05:36 01:05:35 00:10:33 27 Los Angeles CA
76 35-39 Male Salicos Steve 3 01:06:37 01:06:27 00:10:42 28 Garden Grove CA
7 45-49 Male Azorza Percy 3 01:06:47 01:06:42 00:10:44 29 Encino CA
99 35-39 Female Zepeda Lillian 2 01:06:47 01:06:42 00:10:44 30 Santa Monica CA
49 35-39 Female Leach Kamy 3 01:06:47 01:06:42 00:10:44 31 Los Angeles CA
60 50-54 Male Mendez Sergio 7 01:07:05 01:07:02 00:10:47 32 Garden Grove CA
71 35-39 Female Rodriguez Massiel 4 01:08:31 01:08:30 00:11:01 33 Burbank CA
44 10-14 Female Koepke Lillia 1 01:08:47 01:08:44 00:11:04 34 Topanga CA
1 35-39 Female Adriance Vanessa 5 01:10:06 01:09:56 00:11:15 35 Los Angeles CA
59 30-34 Male Mcmanus John 3 01:10:06 01:09:58 00:11:16 36 Los Angeles CA
6 65-69 Male Avon Michael 1 01:12:10 01:12:03 00:11:36 37 Pasadena CA
84 45-49 Female Smith Jill 1 01:12:17 01:12:16 00:11:38 38 Santa Monica CA
63 50-54 Female Morris Katherine 1 01:12:17 01:12:17 00:11:38 39 La Quinta CA
22 55-59 Female Dechow Patricia 2 01:12:55 01:12:48 00:11:43 40 Santa Monica CA
47 35-39 Male Lasker Adam 4 01:13:18 01:13:10 00:11:46 41 Santa Monica CA
12 30-34 Female Brantley Tara 2 01:13:18 01:13:10 00:11:46 42 Santa Monica CA
103 65-69 Male Shahin Sirous 2 01:14:37 01:14:32 00:12:00 43 Sylmar CA
64 60-64 Male Ownby David 1 01:14:41 01:14:35 00:12:00 44 Long Beach CA
21 15-19 Male Davis Matthew 3 01:14:50 01:14:45 00:12:02 45 San Pedro CA
43 50-54 Male Koepke Jens 8 01:15:01 01:14:57 00:12:04 46 Topanga CA
96 50-54 Female Wood Heather 2 01:15:28 01:15:26 00:12:08 47 Santa Monica CA
55 35-39 Female Marriott Anya 6 01:15:39 01:15:35 00:12:10 48 Thousand Oaks CA
46 35-39 Female Krisch Tara 7 01:15:46 01:15:43 00:12:11 49 Moorpark CA
9 50-54 Male Blankenship Kent 9 01:17:16 01:17:05 00:12:24 50 Thousand Oaks CA
10 45-49 Female Blankenship Tess 2 01:17:16 01:17:06 00:12:24 51 Thousand Oaks CA
98 30-34 Male Zatulov Michael 4 01:17:26 01:17:17 00:12:26 52 Santa Monica CA
42 35-39 Male Hsu Kevin 5 01:18:44 01:18:35 00:12:39 53 Los Alamitos CA
83 25-29 Male Shlecter David 1 01:18:46 01:18:37 00:12:39 54 Venice CA
92 40-44 Female Walters Amy 2 01:19:42 01:19:31 00:12:48 55 Emeryville CA
77 35-39 Female Salicos Marisa 8 01:20:27 01:20:17 00:12:55 56 Garden Grove CA
104 25-29 Female Cruz Mayra 1 01:20:39 01:20:35 00:12:58 57 Los Angeles CA
75 45-49 Female Salhi Rachel 3 01:21:16 01:21:10 00:13:04 58 Sierra Madre CA
13 50-54 Female Brennan Julie 3 01:21:41 01:21:31 00:13:07 59 Simi Valley CA
29 40-44 Female Germino Debby 3 01:22:26 01:22:20 00:13:15 60 Sherman Oaks CA
24 30-34 Female Diaz Marisol 3 01:22:42 01:22:35 00:13:17 61 Canoga Park CA
56 25-29 Female Mccormick Madison 2 01:23:16 01:23:08 00:13:23 62 Agoura Hills CA
48 55-59 Male Lazowski Edward 3 01:24:22 01:24:15 00:13:33 63 Newport Beach CA
90 30-34 Male Venegas Antonio 5 01:25:07 01:25:04 00:13:41 64 Chatsworth CA
93 15-19 Female Weinberg Sara 1 01:25:48 01:25:37 00:13:47 65 Beverly Hills CA
20 50-54 Female Cutler Jennifer 4 01:25:49 01:25:37 00:13:47 66 Beverly Hills CA
91 20-24 Female Villanueva Jillian 1 01:26:45 01:26:43 00:13:57 67 Granada Hills CA
68 35-39 Female Rabara Rhodora 9 01:27:10 01:27:04 00:14:01 68 Los Angeles CA
61 35-39 Female Monroy Alejandra 10 01:28:49 01:28:35 00:14:15 69 Long Beach CA
81 50-54 Male Schultz Edward 10 01:29:07 01:28:58 00:14:19 70 Los Angeles CA
79 30-34 Male Schatz Michael 6 01:29:35 01:29:21 00:14:23 71 Van Nuys CA
73 50-54 Female Ronk Carla 5 01:31:01 01:30:58 00:14:38 72 Westlake Vlg CA
72 45-49 Male Rojas Victor 4 01:34:14 01:34:01 00:15:08 73 Long Beach CA
2 60-64 Female Alexander Lisa 1 01:34:47 01:34:30 00:15:12 74 Los Angeles CA
33 50-54 Female Gottfried Gail 6 01:34:55 01:34:42 00:15:14 75 Sierra Madre CA
19 30-34 Female Cruz Elizabeth 4 01:37:01 01:36:52 00:15:35 76 Northridge CA
25 35-39 Female Elliott Amanda 11 01:39:31 01:39:20 00:15:59 77 W Hollywood CA
82 60-64 Female Shahin Caroline 2 01:41:28 01:41:18 00:16:18 78 Sylmar CA
14 70-74 Female Brown Evelyn 1 01:47:10 01:46:58 00:17:13 79 Woodland Hills CA
69 70-74 Male Radley Robert 1 01:52:20 01:52:08 00:18:03 80 Calabasas CA
18 40-44 Female Craycroft Molly 4 01:54:14 01:54:08 00:18:22 81 Hermosa Beach CA
26 60-64 Female Finch Kate 3 01:55:03 01:54:51 00:18:29 82 Woodland Hills CA
587 35-39 Male De Sa Mario 6 01:55:50 01:55:47 00:18:38 83 Los Angeles CA
Notes Pages Download Filter By
 




Keyword Exact  
Division

Bib Division Last Name First Name Division Place Gun Chip Overall Sex Place City State
908 15-19 Male Bijlsma Elliott 1 01:05:18 01:05:18 1 1 El Segundo CA
993 20-24 Male Sode Trevor 1 01:06:00 01:06:00 2 2 West Hills CA
972 40-44 Male Mugnier Eric 1 01:12:54 01:12:54 3 3 Pacific Plsds CA
973 25-29 Male Murray Alastair 1 01:13:56 01:13:55 4 4 Seattle WA
979 40-44 Male Paul Douglas 2 01:15:19 01:15:16 5 5 Los Angeles CA
936 25-29 Male Gonzalez Charlie 2 01:16:57 01:16:57 6 6 Rialto CA
909 45-49 Male Bondesen Mikkel 1 01:17:08 01:17:05 7 7 Sherman Oaks CA
942 45-49 Male Hernandez Zenen 2 01:17:19 01:17:17 8 8 West Los Angeles CA
946 35-39 Male Hong John 1 01:18:09 01:18:08 9 9 Canyon Country CA
922 50-54 Male Deluca Martin 1 01:18:19 01:18:12 10 10 Thousand Oaks CA
983 55-59 Male Rignot Eric 1 01:18:20 01:18:16 11 11 Irvine CA
992 50-54 Male Sherwin Tom 2 01:18:35 01:18:32 12 12 Redondo Beach CA
904 35-39 Male Berdahl Carl 2 01:19:28 01:19:27 13 13 Los Angeles CA
925 35-39 Female Donovan Kathryn 1 01:19:57 01:19:57 14 1 Oxnard CA
996 40-44 Male Suntonvipart Marvin 3 01:20:22 01:20:21 15 14 Playa Del Rey CA
941 25-29 Male Hernandez Rafael 3 01:20:38 01:20:27 16 15 Los Angeles CA
964 40-44 Male Luis Freddy 4 01:21:05 01:21:04 17 16 Santa Monica CA
962 40-44 Male Lara Sergio 5 01:21:54 01:21:52 18 17 Los Angeles CA
932 65-69 Male Frank Jay 1 01:21:54 01:21:54 19 18 Oak Park CA
935 20-24 Female Gonzalez Kandace 1 01:21:56 01:21:56 20 2 Rialto CA
905 55-59 Male Bertrand Greg 2 01:22:07 01:22:02 21 19 Thousand Oaks CA
948 30-34 Male Howard Eric 1 01:24:55 01:24:47 22 20 Thousand Oaks CA
1001 20-24 Male Wang Justin 2 01:25:00 01:25:00 23 21 Pasadena CA
985 25-29 Male Rodarte Hector 4 01:25:47 01:25:38 24 22 Garden Grove CA
990 25-29 Male Serge Zachary 5 01:27:25 01:27:24 25 23 Manhattan Beach CA
999 30-34 Male Velasco Flavio 2 01:28:42 01:28:33 26 24 Los Angeles CA
951 30-34 Male Jackson Kyle 3 01:28:36 01:28:34 27 25 Calabasas CA
995 65-69 Male Strehlo Kevin 2 01:28:41 01:28:38 28 26 Woodland Hls CA
1002 50-54 Male Weiss Rusty 3 01:28:50 01:28:40 29 27 Los Angeles CA
977 30-34 Male Paradise Thomas 4 01:29:25 01:29:12 30 28 Van Nuys CA
1010 50-54 Male Matt Roberts 4 01:29:42 01:29:40 31 29
911 40-44 Male Brown Derek 6 01:29:50 01:29:42 32 30 Simi Valley CA
984 30-34 Male Rios Alexander 5 01:32:14 01:32:11 33 31 Huntington Park CA
989 60-64 Male Sepulveda Lamar 1 01:32:14 01:32:12 34 32 Los Angeles CA
939 55-59 Male Hasencamp Bill 3 01:32:55 01:32:55 35 33 Los Angeles CA
971 50-54 Female Moore Joanna 1 01:33:42 01:33:39 36 3 Los Angeles CA
910 50-54 Male Brennan David 5 01:34:46 01:34:44 37 34 Simi Valley CA
928 50-54 Male Estrada Ernie 6 01:34:52 01:34:46 38 35 Upland CA
986 45-49 Male Romero Oscar 3 01:35:03 01:35:01 39 36 Los Angeles CA
944 35-39 Female Hires Renee 2 01:35:08 01:35:06 40 4 Santa Monica CA
1003 40-44 Female Weissauer Tina 1 01:36:20 01:36:17 41 5 Topanga CA
970 40-44 Male Mirocke Gregory 7 01:36:43 01:36:39 42 37 Carlsbad CA
957 50-54 Female Kobayashi Hiroko 2 01:37:48 01:37:42 43 6 San Gabriel CA
981 55-59 Female Quirk Terri 1 01:38:36 01:38:24 44 7 Ventura CA
921 50-54 Female Deluca Stacy 3 01:39:32 01:39:21 45 8 Thousand Oaks CA
1000 55-59 Male Vujovich Paul 4 01:39:45 01:39:41 46 38 Laguna Niguel CA
907 55-59 Male Bijlsma Ron 5 01:40:16 01:40:10 47 39 El Segundo CA
950 35-39 Female Ireland Melissa 3 01:40:59 01:40:57 48 9 Malibu CA
929 65-69 Male Farmer Francis 3 01:42:04 01:42:02 49 40 Banning CA
906 50-54 Male Biddle Jeffrey 7 01:42:38 01:42:28 50 41 Chicago IL
943 30-34 Female Hern?ndez Micaela 1 01:43:29 01:43:21 51 10 Los Angeles CA
918 40-44 Male Davis Laning 8 01:43:51 01:43:49 52 42 San Pedro CA
965 50-54 Female Luke Stacy 4 01:44:19 01:44:14 53 11 Torrance CA
1011 40-44 Male Davis Jeremy 9 01:44:40 01:44:30 54 43 Santa Monica CA
930 35-39 Male Finley James 3 01:44:40 01:44:34 55 44 Altadena CA
945 45-49 Female Holcomb Stephanie 1 01:44:50 01:44:40 56 12 Pasadena CA
949 35-39 Female Hudson Abbey 4 01:44:46 01:44:41 57 13 Los Angeles CA
913 35-39 Male Camarillo Michael 4 01:45:11 01:45:01 58 45 Stevenson Rnh CA
924 35-39 Female Devaney Shannon 5 01:45:17 01:45:09 59 14 Los Angeles CA
1009 55-59 Male Mastoras Greg 6 01:45:44 01:45:39 60 46 Topanga CA
960 25-29 Female Konishi Amanda 1 01:45:52 01:45:40 61 15 Santa Ana CA
958 60-64 Male Konishi Robert 2 01:45:59 01:45:46 62 47 Santa Ana CA
1012 45-49 Female Grimes Kerry 2 01:47:36 01:47:20 63 16 Santa Monica CA
994 45-49 Female Spohn Holly 3 01:47:46 01:47:37 64 17 Thousand Oaks CA
934 30-34 Female Gomez Julia 2 01:48:39 01:48:30 65 18 W Los Angeles CA
1005 50-54 Female Williams Janna 5 01:48:41 01:48:35 66 19 Westlake Village CA
1008 45-49 Female Elizabeth Harris 4 01:49:33 01:49:30 67 20
969 50-54 Male Meyerhoff Alexander 8 01:49:43 01:49:33 68 48 C R
987 30-34 Male Santiago Manuel 6 01:50:04 01:49:53 69 49 Los Angeles CA
916 40-44 Male Carranza Rosario 10 01:52:00 01:51:52 70 50 Los Angeles CA
947 35-39 Female Howard Brittany 6 01:52:03 01:51:54 71 21 Thousand Oaks CA
963 30-34 Female Lobangco Lou 3 01:52:00 01:51:55 72 22 Panorama City CA
968 50-54 Female Mccormick Kathy 6 01:52:17 01:52:06 73 23 Agoura Hills CA
978 35-39 Female Park Esther 7 01:54:23 01:54:18 74 24 Porter Ranch CA
914 60-64 Female Campbell Diane 1 01:56:52 01:56:43 75 25 Irvine CA
1013 45-49 Female Weiss Julie 5 01:59:01 01:58:44 76 26
933 45-49 Male Garza Richard 4 01:59:25 01:59:21 77 51 Victorville CA
967 55-59 Male Mcclurg Bruce 7 01:59:38 01:59:25 78 52 Banning CA
912 50-54 Male Burdorf Gary 9 02:00:33 02:00:29 79 53 Pacific Palisades CA
902 45-49 Female Amos Marcia 6 02:05:06 02:04:58 80 27 Glendale CA
974 30-34 Male Nenedzhyan Hayk 7 02:11:20 02:06:39 81 54 Van Nuys CA
901 45-49 Male Aguilar David 5 02:07:09 02:07:02 82 55 Sylmar CA
976 70-74 Male Neumann Lon 1 02:12:01 02:11:53 83 56 Sherman Oaks CA
937 45-49 Female Hamilton Cecilia 7 02:12:51 02:12:46 84 28 San Pedro CA
954 45-49 Female Kerker Alla 8 02:12:51 02:12:46 85 29 Rch Palos Vrd CA
961 60-64 Female Konishi Jeanine 2 02:15:43 02:15:29 86 30 Santa Ana CA
955 55-59 Male Keyne Andrew 8 02:21:29 02:21:23 87 57 Santa Clarita CA
926 70-74 Male Dooley Gordon 2 02:21:53 02:21:41 88 58 Laguna Beach CA
1006 55-59 Male Winchester Paul 9 02:23:31 02:22:28 89 59 Tehachapi CA
923 45-49 Female Dengate Cat 9 02:29:08 02:29:00 90 31 Redlands CA
966 60-64 Female Marlowe-carr Lisa 3 02:31:19 02:31:05 91 32 Burbank CA
931 45-49 Female Fox Kel 10 02:31:50 02:31:38 92 33 Burbank CA
1004 80-99 Male Williams John 1 02:58:25 02:58:19 93 60 Culver City CA